Time;durP1;ratioP1;P1;durP2;ratioP2;P2;SDS_P1;SDS_P2;PMS_P1;PMS_P2;Temp;Humidity;BMP_temperature;BMP_pressure;BME280_temperature;BME280_humidity;BME280_pressure;Samples;Min_cycle;Max_cycle;Signal;HPM_P1;HPM_P2
2021/12/16 00:01:51;;;;;;;0.00;0.00;;;4.90;99.90;;;;;;5096667;28;20115;-47
2021/12/16 00:29:13;;;;;;;4.10;1.77;;;4.70;99.90;;;;;;5096250;28;20027;-46
2021/12/16 00:31:56;;;;;;;0.00;0.00;;;4.70;99.90;;;;;;5096414;28;20031;-46
2021/12/16 00:34:25;;;;;;;0.20;0.20;;;4.90;99.90;;;;;;5096417;28;20032;-52
2021/12/16 00:36:51;;;;;;;0.00;0.00;;;5.00;99.90;;;;;;5077231;28;20021;-49
2021/12/16 00:39:30;;;;;;;0.00;0.00;;;5.00;99.90;;;;;;5096126;28;20086;-46
2021/12/16 00:42:03;;;;;;;0.57;0.57;;;5.00;99.90;;;;;;5096233;28;20055;-47
2021/12/16 00:49:32;;;;;;;4.95;1.52;;;5.20;99.90;;;;;;5095992;28;20104;-50
2021/12/16 00:54:49;;;;;;;2.15;1.70;;;5.20;99.90;;;;;;5096108;28;20038;-47
2021/12/16 00:57:16;;;;;;;0.00;0.00;;;4.80;99.90;;;;;;5084433;28;20029;-47
2021/12/16 00:59:46;;;;;;;0.65;0.08;;;4.80;99.90;;;;;;5064858;28;20112;-50
2021/12/16 01:34:55;;;;;;;1.40;0.52;;;5.00;99.90;;;;;;5072633;28;20403;-46
2021/12/16 01:41:00;;;;;;;0.00;0.00;;;4.90;99.90;;;;;;5062916;28;20036;-48
2021/12/16 01:46:17;;;;;;;0.00;0.00;;;4.90;99.90;;;;;;4981654;28;20062;-49
2021/12/16 01:51:33;;;;;;;0.17;0.15;;;4.70;99.90;;;;;;5059697;28;20091;-48
2021/12/16 01:54:34;;;;;;;0.00;0.00;;;4.60;99.90;;;;;;5072869;28;20028;-50
2021/12/16 01:57:36;;;;;;;13.05;2.95;;;4.70;99.90;;;;;;5066936;28;20036;-46
2021/12/16 01:59:43;;;;;;;0.00;0.00;;;4.60;99.90;;;;;;5055269;28;20459;-50
2021/12/16 02:02:31;;;;;;;2.65;1.83;;;4.60;99.90;;;;;;5068312;28;20052;-48
2021/12/16 02:08:09;;;;;;;0.00;0.00;;;4.60;99.90;;;;;;5086942;28;20413;-48
2021/12/16 02:10:40;;;;;;;0.45;0.45;;;4.50;99.90;;;;;;5092082;28;20028;-51
2021/12/16 02:27:40;;;;;;;12.65;3.20;;;4.90;99.90;;;;;;5073223;28;20580;-50
2021/12/16 02:37:54;;;;;;;0.35;0.35;;;4.60;99.90;;;;;;5075396;28;20029;-48
2021/12/16 02:40:21;;;;;;;0.10;0.10;;;4.60;99.90;;;;;;5072536;28;20024;-48
2021/12/16 02:51:09;;;;;;;3.65;3.30;;;4.50;99.90;;;;;;5071322;28;20024;-50
2021/12/16 02:53:38;;;;;;;2.05;1.83;;;4.30;99.90;;;;;;5091877;28;20032;-48
2021/12/16 02:56:05;;;;;;;0.38;0.38;;;4.30;99.90;;;;;;5083111;28;20049;-46
2021/12/16 02:58:32;;;;;;;0.22;0.22;;;4.30;99.90;;;;;;5074817;28;20029;-48
2021/12/16 03:01:03;;;;;;;0.00;0.00;;;4.40;99.90;;;;;;5075067;28;20141;-48
2021/12/16 03:03:29;;;;;;;3.00;2.70;;;4.40;99.90;;;;;;5080873;28;20075;-45
2021/12/16 03:05:55;;;;;;;0.00;0.00;;;4.40;99.90;;;;;;5073225;28;20052;-47
2021/12/16 03:08:21;;;;;;;1.67;1.58;;;4.40;99.90;;;;;;5072353;28;20150;-48
2021/12/16 03:13:30;;;;;;;0.52;0.50;;;4.50;99.90;;;;;;5071338;28;20033;-49
2021/12/16 03:18:51;;;;;;;1.20;1.10;;;4.50;99.90;;;;;;5071147;28;20032;-48
2021/12/16 03:21:25;;;;;;;4.20;1.75;;;4.50;99.90;;;;;;5071263;28;20032;-49
2021/12/16 03:39:43;;;;;;;0.00;0.00;;;4.50;99.90;;;;;;5073452;28;20035;-47
2021/12/16 03:42:09;;;;;;;;;;;4.60;99.90;;;;;;5073556;28;20031;-50
2021/12/16 03:47:25;;;;;;;1.10;1.02;;;4.70;99.90;;;;;;5066226;28;20119;-45
2021/12/16 03:49:51;;;;;;;3.95;3.33;;;4.60;99.90;;;;;;5073352;28;20024;-49
2021/12/16 03:52:18;;;;;;;0.00;0.00;;;4.60;99.90;;;;;;5073015;28;20466;-50
2021/12/16 03:54:50;;;;;;;0.10;0.10;;;4.50;99.90;;;;;;5072953;28;20039;-46
2021/12/16 03:57:20;;;;;;;0.25;0.25;;;4.50;99.90;;;;;;5073091;28;20020;-49
2021/12/16 03:59:47;;;;;;;0.65;0.65;;;4.70;99.90;;;;;;5072851;28;20025;-47
2021/12/16 04:02:23;;;;;;;0.43;0.32;;;4.50;99.90;;;;;;5072629;28;20483;-47
2021/12/16 04:04:51;;;;;;;1.75;1.65;;;4.40;99.90;;;;;;5072593;28;20053;-48
2021/12/16 04:07:19;;;;;;;1.85;1.17;;;4.30;99.90;;;;;;5072745;28;20021;-48
2021/12/16 04:09:46;;;;;;;4.80;1.48;;;4.30;99.90;;;;;;5072403;28;20059;-46
2021/12/16 04:12:15;;;;;;;1.83;1.45;;;4.20;99.90;;;;;;5066980;28;20151;-47
2021/12/16 04:14:42;;;;;;;0.77;0.73;;;4.20;99.90;;;;;;5076449;28;20024;-50
2021/12/16 04:17:09;;;;;;;0.25;0.25;;;4.10;99.90;;;;;;5076353;28;20040;-46
2021/12/16 04:19:35;;;;;;;4.57;3.15;;;4.20;99.90;;;;;;5076319;28;20376;-49
2021/12/16 04:22:15;;;;;;;0.00;0.00;;;4.20;99.90;;;;;;5057188;28;20029;-46
2021/12/16 04:24:41;;;;;;;5.28;1.80;;;4.30;99.90;;;;;;5054972;28;20033;-47
2021/12/16 04:27:08;;;;;;;13.15;7.03;;;4.20;99.90;;;;;;5075397;28;20402;-46
2021/12/16 04:29:33;;;;;;;1.40;1.15;;;4.20;99.90;;;;;;5076077;28;20414;-47
2021/12/16 04:32:00;;;;;;;0.75;0.75;;;4.20;99.90;;;;;;5076288;28;20082;-47
2021/12/16 04:34:26;;;;;;;4.18;3.60;;;4.10;99.90;;;;;;5075609;28;20486;-50
2021/12/16 04:36:53;;;;;;;0.00;0.00;;;4.00;99.90;;;;;;5075935;28;20028;-47
2021/12/16 04:39:23;;;;;;;0.03;0.03;;;4.00;99.90;;;;;;5076112;28;20162;-46
2021/12/16 04:41:50;;;;;;;1.15;0.98;;;4.10;99.90;;;;;;5075904;28;20028;-47
2021/12/16 04:44:16;;;;;;;1.48;1.38;;;4.10;99.90;;;;;;5075702;28;20025;-46
2021/12/16 04:46:44;;;;;;;2.17;1.77;;;4.00;99.90;;;;;;5075458;28;20035;-48
2021/12/16 04:49:12;;;;;;;0.75;0.75;;;4.00;99.90;;;;;;5075307;28;20025;-45
2021/12/16 04:51:44;;;;;;;0.00;0.00;;;4.00;99.90;;;;;;5075296;28;20025;-46
2021/12/16 04:54:10;;;;;;;;;;;4.00;99.90;;;;;;5075703;28;20028;-47
2021/12/16 04:56:37;;;;;;;0.35;0.20;;;4.00;99.90;;;;;;5075221;28;20391;-47
2021/12/16 04:59:08;;;;;;;0.98;0.20;;;4.10;99.90;;;;;;5075580;28;20222;-46
2021/12/16 05:01:36;;;;;;;2.28;1.27;;;4.00;99.90;;;;;;5075520;28;20056;-46
2021/12/16 05:04:02;;;;;;;0.80;0.80;;;4.00;99.90;;;;;;5075117;28;20110;-49
2021/12/16 05:06:28;;;;;;;1.90;1.77;;;4.00;99.90;;;;;;5075243;28;20066;-47
2021/12/16 05:08:54;;;;;;;0.95;0.77;;;4.00;99.90;;;;;;5074902;28;20029;-48
2021/12/16 05:11:19;;;;;;;0.00;0.00;;;4.00;99.90;;;;;;5074839;28;20360;-47
2021/12/16 05:13:47;;;;;;;0.60;0.50;;;4.00;99.90;;;;;;5074655;28;20107;-50
2021/12/16 05:16:14;;;;;;;4.63;0.90;;;4.10;99.90;;;;;;5074842;28;20021;-46
2021/12/16 05:18:39;;;;;;;0.00;0.00;;;4.10;99.90;;;;;;5056908;28;20051;-48
2021/12/16 05:21:26;;;;;;;0.90;0.57;;;4.20;99.90;;;;;;5074885;28;20021;-50
2021/12/16 05:26:36;;;;;;;3.30;1.70;;;4.00;99.90;;;;;;5074781;28;20387;-48
2021/12/16 05:29:02;;;;;;;0.00;0.00;;;4.00;99.90;;;;;;5074390;28;20024;-50
2021/12/16 05:31:29;;;;;;;4.22;3.03;;;3.80;99.90;;;;;;5074249;28;20032;-50
2021/12/16 05:33:56;;;;;;;1.02;0.75;;;3.90;99.90;;;;;;5074306;28;20056;-49
2021/12/16 05:36:22;;;;;;;0.10;0.10;;;3.80;99.90;;;;;;5074535;28;20028;-47
2021/12/16 05:38:48;;;;;;;0.00;0.00;;;3.80;99.90;;;;;;5074413;28;20032;-47
2021/12/16 05:41:18;;;;;;;0.10;0.10;;;3.70;99.90;;;;;;5074080;28;20382;-46
2021/12/16 05:43:44;;;;;;;0.55;0.50;;;3.80;99.90;;;;;;5073889;28;20393;-49
2021/12/16 05:46:14;;;;;;;2.80;1.00;;;3.70;99.90;;;;;;5053108;28;20446;-48
2021/12/16 05:48:42;;;;;;;1.75;0.77;;;3.80;99.90;;;;;;5069576;28;20433;-48
2021/12/16 05:51:12;;;;;;;0.47;0.47;;;3.70;99.90;;;;;;5074124;28;20029;-46
2021/12/16 05:53:40;;;;;;;0.32;0.32;;;3.80;99.90;;;;;;5074099;28;20029;-48
2021/12/16 05:56:07;;;;;;;1.77;1.40;;;3.70;99.90;;;;;;5073808;28;20020;-49
2021/12/16 05:58:34;;;;;;;0.95;0.28;;;3.70;99.90;;;;;;5073998;28;20036;-48
2021/12/16 06:01:08;;;;;;;1.70;1.60;;;3.70;99.90;;;;;;5073871;28;20032;-46
2021/12/16 06:03:34;;;;;;;0.00;0.00;;;3.70;99.90;;;;;;5073615;28;20105;-48
2021/12/16 06:06:01;;;;;;;0.85;0.60;;;3.70;99.90;;;;;;5074095;28;20067;-49
2021/12/16 06:08:26;;;;;;;1.85;1.55;;;3.60;99.90;;;;;;5052371;28;20440;-49
2021/12/16 06:13:42;;;;;;;0.45;0.38;;;3.70;99.90;;;;;;5073838;28;20039;-50
2021/12/16 06:27:20;;;;;;;0.00;0.00;;;3.70;99.90;;;;;;5073641;28;20043;-47
2021/12/16 06:29:47;;;;;;;1.45;0.85;;;3.70;99.90;;;;;;5073265;28;20062;-48
2021/12/16 06:32:14;;;;;;;1.30;1.20;;;3.70;99.90;;;;;;5059151;28;20035;-47
2021/12/16 06:34:41;;;;;;;0.08;0.08;;;3.70;99.90;;;;;;5080345;28;20458;-46
2021/12/16 06:37:08;;;;;;;0.00;0.00;;;3.70;99.90;;;;;;5093365;28;20024;-48
2021/12/16 06:39:34;;;;;;;0.22;0.22;;;3.80;99.90;;;;;;5077581;28;20020;-48
2021/12/16 06:42:00;;;;;;;1.23;1.13;;;3.80;99.90;;;;;;5073293;28;20095;-48
2021/12/16 06:44:35;;;;;;;3.35;2.25;;;3.70;99.90;;;;;;5064437;28;20032;-48
2021/12/16 06:47:07;;;;;;;1.10;0.45;;;3.80;99.90;;;;;;5070587;28;20033;-49
2021/12/16 06:49:35;;;;;;;0.00;0.00;;;3.70;99.90;;;;;;5070281;28;20031;-48
2021/12/16 06:52:05;;;;;;;0.00;0.00;;;3.70;99.90;;;;;;5058638;28;20105;-48
2021/12/16 06:54:41;;;;;;;0.00;0.00;;;3.90;99.90;;;;;;5053663;28;20029;-51
2021/12/16 06:57:34;;;;;;;0.00;0.00;;;3.90;99.90;;;;;;5068914;28;20024;-49
2021/12/16 07:00:11;;;;;;;3.20;1.80;;;4.00;99.90;;;;;;5070475;28;20027;-49
2021/12/16 07:05:07;;;;;;;2.15;1.63;;;4.10;99.90;;;;;;5084670;28;20055;-47
2021/12/16 07:07:34;;;;;;;0.85;0.85;;;4.00;99.90;;;;;;5074876;28;20043;-46
2021/12/16 07:10:00;;;;;;;1.17;1.08;;;3.80;99.90;;;;;;5084956;28;20076;-48
2021/12/16 07:12:35;;;;;;;0.13;0.13;;;3.80;99.90;;;;;;5087684;28;20436;-48
2021/12/16 07:15:06;;;;;;;0.88;0.82;;;3.90;99.90;;;;;;5092485;28;20041;-50
2021/12/16 07:17:31;;;;;;;11.60;0.60;;;3.80;99.90;;;;;;5090091;28;20447;-47
2021/12/16 07:19:57;;;;;;;0.00;0.00;;;3.80;99.90;;;;;;5081262;28;20059;-48
2021/12/16 07:22:23;;;;;;;0.00;0.00;;;3.90;99.90;;;;;;5092130;28;20028;-47
2021/12/16 07:24:49;;;;;;;0.03;0.03;;;4.10;99.90;;;;;;5089703;28;20175;-47
2021/12/16 07:27:14;;;;;;;0.00;0.00;;;4.30;99.90;;;;;;5074613;28;20421;-47
2021/12/16 07:29:40;;;;;;;0.00;0.00;;;4.40;99.90;;;;;;5092616;28;20035;-48
2021/12/16 07:32:06;;;;;;;0.00;0.00;;;4.60;99.90;;;;;;5092456;28;20427;-48
2021/12/16 07:34:32;;;;;;;0.00;0.00;;;4.70;99.90;;;;;;5092807;28;20174;-47
2021/12/16 07:37:04;;;;;;;0.00;0.00;;;4.80;99.90;;;;;;5074749;28;20028;-51
2021/12/16 07:39:38;;;;;;;0.00;0.00;;;4.80;99.90;;;;;;5075144;28;20024;-49
2021/12/16 07:42:06;;;;;;;0.00;0.00;;;4.90;99.90;;;;;;5093201;28;20069;-49
2021/12/16 07:44:34;;;;;;;0.00;0.00;;;4.90;99.90;;;;;;5074718;28;20032;-50
2021/12/16 07:47:04;;;;;;;0.00;0.00;;;4.90;99.90;;;;;;5096638;28;20028;-49
2021/12/16 07:49:35;;;;;;;0.00;0.00;;;5.10;99.90;;;;;;5096881;28;20020;-46
2021/12/16 07:52:04;;;;;;;0.00;0.00;;;5.10;99.90;;;;;;5096373;28;20416;-49
2021/12/16 07:54:30;;;;;;;0.00;0.00;;;5.30;99.90;;;;;;5095955;28;20032;-48
2021/12/16 07:56:58;;;;;;;0.00;0.00;;;5.20;99.90;;;;;;5096569;28;20111;-52
2021/12/16 07:59:26;;;;;;;0.00;0.00;;;5.40;99.90;;;;;;5096703;28;20024;-46
2021/12/16 08:01:53;;;;;;;0.00;0.00;;;5.30;99.90;;;;;;5096148;28;20028;-50
2021/12/16 08:04:22;;;;;;;0.00;0.00;;;5.40;99.90;;;;;;5096041;28;20147;-47
2021/12/16 08:06:50;;;;;;;0.00;0.00;;;5.50;99.90;;;;;;5096553;28;20073;-48
2021/12/16 08:09:16;;;;;;;0.70;0.70;;;5.60;99.90;;;;;;5096222;28;20028;-51
2021/12/16 08:11:42;;;;;;;0.40;0.40;;;5.60;99.90;;;;;;5096445;28;20443;-46
2021/12/16 08:14:09;;;;;;;0.10;0.10;;;5.50;99.90;;;;;;5096371;28;20209;-48
2021/12/16 08:16:36;;;;;;;0.00;0.00;;;5.60;99.90;;;;;;5096369;28;20059;-45
2021/12/16 08:19:03;;;;;;;0.00;0.00;;;5.60;99.90;;;;;;5095923;28;20533;-53
2021/12/16 08:21:29;;;;;;;0.88;0.85;;;5.70;99.90;;;;;;5096313;28;20170;-51
2021/12/16 08:24:01;;;;;;;0.00;0.00;;;5.80;99.90;;;;;;5096113;28;20108;-45
2021/12/16 08:26:29;;;;;;;0.00;0.00;;;5.70;99.90;;;;;;5095784;28;20077;-47
2021/12/16 08:28:55;;;;;;;0.00;0.00;;;5.80;99.90;;;;;;5095957;28;20073;-50
2021/12/16 08:31:20;;;;;;;0.00;0.00;;;5.80;99.90;;;;;;5077730;28;20028;-49
2021/12/16 08:33:47;;;;;;;0.00;0.00;;;5.80;99.90;;;;;;5096346;28;20024;-49
2021/12/16 08:36:13;;;;;;;0.00;0.00;;;6.00;99.90;;;;;;5096123;28;20039;-46
2021/12/16 08:38:39;;;;;;;0.00;0.00;;;6.00;99.90;;;;;;5095592;28;20184;-46
2021/12/16 08:41:11;;;;;;;0.00;0.00;;;6.10;99.90;;;;;;5095596;28;20020;-48
2021/12/16 08:43:41;;;;;;;0.00;0.00;;;6.10;99.90;;;;;;5077462;28;20171;-47
2021/12/16 08:46:12;;;;;;;0.00;0.00;;;5.90;99.90;;;;;;5095542;28;20020;-49
2021/12/16 08:48:39;;;;;;;0.00;0.00;;;5.90;99.90;;;;;;5095750;28;20031;-48
2021/12/16 08:51:05;;;;;;;0.00;0.00;;;6.00;99.90;;;;;;5095878;28;20031;-48
2021/12/16 08:53:31;;;;;;;0.20;0.20;;;6.10;99.90;;;;;;5095343;28;20095;-49
2021/12/16 08:55:57;;;;;;;4.30;1.20;;;6.10;99.90;;;;;;5095254;28;20020;-48
2021/12/16 08:58:24;;;;;;;0.77;0.77;;;6.10;99.90;;;;;;5094501;28;20304;-50
2021/12/16 09:00:59;;;;;;;0.00;0.00;;;6.00;99.90;;;;;;5095138;28;20047;-46
2021/12/16 09:03:27;;;;;;;0.38;0.38;;;6.00;99.90;;;;;;5094858;28;20028;-49
2021/12/16 09:05:54;;;;;;;0.00;0.00;;;6.10;99.90;;;;;;5094797;28;20052;-49
2021/12/16 09:08:20;;;;;;;0.00;0.00;;;6.00;99.90;;;;;;5094953;28;20024;-48
2021/12/16 09:10:46;;;;;;;0.00;0.00;;;6.10;99.90;;;;;;5077029;28;20115;-48
2021/12/16 09:13:14;;;;;;;0.00;0.00;;;6.30;99.90;;;;;;5094999;28;20055;-48
2021/12/16 09:15:44;;;;;;;0.03;0.03;;;6.20;99.90;;;;;;5095272;28;20050;-50
2021/12/16 09:18:11;;;;;;;0.10;0.10;;;6.10;99.90;;;;;;5095198;28;20027;-50
2021/12/16 09:20:38;;;;;;;0.00;0.00;;;6.10;99.90;;;;;;5095095;28;20024;-49
2021/12/16 09:23:05;;;;;;;0.00;0.00;;;6.20;99.90;;;;;;5095265;28;20451;-48
2021/12/16 09:25:31;;;;;;;0.00;0.00;;;6.30;99.90;;;;;;5094853;28;20080;-48
2021/12/16 09:27:57;;;;;;;0.00;0.00;;;6.40;99.90;;;;;;5094105;28;20103;-48
2021/12/16 09:30:25;;;;;;;0.00;0.00;;;6.50;99.90;;;;;;5094314;28;20099;-51
2021/12/16 09:32:56;;;;;;;0.00;0.00;;;6.60;99.90;;;;;;5094554;28;20046;-47
2021/12/16 09:35:22;;;;;;;0.00;0.00;;;6.50;99.90;;;;;;5094735;28;20028;-52
2021/12/16 09:37:49;;;;;;;0.00;0.00;;;6.40;99.90;;;;;;5094438;28;20046;-48
2021/12/16 09:40:21;;;;;;;0.00;0.00;;;6.50;99.90;;;;;;5094230;28;20378;-49
2021/12/16 09:42:47;;;;;;;0.00;0.00;;;6.50;99.90;;;;;;5094543;28;20111;-47
2021/12/16 09:45:14;;;;;;;0.00;0.00;;;6.60;99.90;;;;;;5094432;28;20036;-48
2021/12/16 09:47:40;;;;;;;0.00;0.00;;;6.50;99.90;;;;;;5094746;28;20021;-47
2021/12/16 09:50:08;;;;;;;20.27;0.22;;;6.70;99.90;;;;;;5093832;28;20024;-49
2021/12/16 09:52:34;;;;;;;0.80;0.30;;;6.80;99.90;;;;;;5093964;28;20141;-49
2021/12/16 09:55:01;;;;;;;0.00;0.00;;;6.70;99.90;;;;;;5093498;28;20528;-50
2021/12/16 09:57:28;;;;;;;0.00;0.00;;;6.60;99.90;;;;;;5093488;28;20070;-48
2021/12/16 09:59:55;;;;;;;0.00;0.00;;;6.70;99.90;;;;;;5094043;28;20028;-48
2021/12/16 10:02:22;;;;;;;0.85;0.20;;;6.80;99.90;;;;;;5093689;28;20020;-48
2021/12/16 10:04:48;;;;;;;0.00;0.00;;;6.70;99.90;;;;;;5093746;28;20040;-49
2021/12/16 10:07:21;;;;;;;2.10;1.65;;;6.60;99.90;;;;;;5093911;28;20032;-48
2021/12/16 10:09:49;;;;;;;0.00;0.00;;;6.50;99.90;;;;;;5092426;28;20024;-49
2021/12/16 10:12:20;;;;;;;0.00;0.00;;;6.60;99.90;;;;;;5094174;28;20051;-51
2021/12/16 10:17:28;;;;;;;0.00;0.00;;;6.90;99.90;;;;;;5093826;28;20249;-49
2021/12/16 10:20:04;;;;;;;0.00;0.00;;;6.80;99.90;;;;;;5093619;28;20020;-49
2021/12/16 10:22:37;;;;;;;0.10;0.10;;;6.80;99.90;;;;;;5093760;28;20028;-50
2021/12/16 10:25:21;;;;;;;0.10;0.10;;;6.70;99.90;;;;;;5093718;28;20104;-49
2021/12/16 10:28:00;;;;;;;0.05;0.05;;;6.70;99.90;;;;;;5094034;28;20521;-50
2021/12/16 10:30:55;;;;;;;0.00;0.00;;;6.80;99.90;;;;;;5093425;28;20026;-49
2021/12/16 10:33:36;;;;;;;3.03;2.40;;;6.70;99.90;;;;;;5075053;28;20032;-47
2021/12/16 10:36:01;;;;;;;0.00;0.00;;;6.80;99.90;;;;;;5075196;28;20477;-49
2021/12/16 10:38:27;;;;;;;0.10;0.10;;;6.80;99.90;;;;;;5093148;28;20032;-47
2021/12/16 10:40:58;;;;;;;0.00;0.00;;;6.90;99.90;;;;;;5093326;28;20374;-49
2021/12/16 10:43:28;;;;;;;2.15;1.10;;;6.90;99.90;;;;;;5093207;28;20031;-47
2021/12/16 10:45:58;;;;;;;0.00;0.00;;;7.00;99.90;;;;;;5075069;28;20419;-49
2021/12/16 10:48:33;;;;;;;12.35;7.57;;;7.10;99.90;;;;;;5093344;28;20024;-48
2021/12/16 10:50:59;;;;;;;0.10;0.10;;;7.40;99.90;;;;;;5092940;28;20035;-48
2021/12/16 10:53:43;;;;;;;0.10;0.10;;;7.50;99.90;;;;;;5093397;28;20028;-47
2021/12/16 10:56:09;;;;;;;0.00;0.00;;;7.50;99.90;;;;;;5093123;28;20085;-49
2021/12/16 10:59:11;;;;;;;0.00;0.00;;;7.60;99.90;;;;;;5092844;28;20024;-46
2021/12/16 11:01:36;;;;;;;0.00;0.00;;;8.00;99.90;;;;;;5085507;28;20086;-46
2021/12/16 11:04:08;;;;;;;0.00;0.00;;;8.10;99.90;;;;;;5092683;28;20450;-48
2021/12/16 11:06:38;;;;;;;0.00;0.00;;;7.90;99.90;;;;;;5074781;28;20378;-47
2021/12/16 11:09:30;;;;;;;0.00;0.00;;;7.60;99.90;;;;;;5093064;28;20031;-47
2021/12/16 11:12:09;;;;;;;0.00;0.00;;;7.40;99.90;;;;;;5092916;28;20020;-48
2021/12/16 11:14:36;;;;;;;0.00;0.00;;;7.00;99.90;;;;;;5092587;28;20505;-47
2021/12/16 11:17:06;;;;;;;0.60;0.60;;;6.80;99.90;;;;;;5092246;28;20035;-50
2021/12/16 11:19:55;;;;;;;0.00;0.00;;;6.50;99.90;;;;;;5092559;28;20028;-48
2021/12/16 11:22:25;;;;;;;0.05;0.05;;;6.30;99.90;;;;;;5097643;28;20020;-48
2021/12/16 11:24:52;;;;;;;0.00;0.00;;;6.30;99.90;;;;;;5097148;28;20107;-50
2021/12/16 11:27:26;;;;;;;3.22;3.00;;;6.30;99.90;;;;;;5096943;28;20209;-51
2021/12/16 11:29:53;;;;;;;6.03;3.35;;;6.40;99.90;;;;;;5090585;28;20020;-51
2021/12/16 11:32:42;;;;;;;0.32;0.32;;;6.70;99.90;;;;;;5106146;28;20024;-50
2021/12/16 11:35:24;;;;;;;0.55;0.55;;;6.90;99.90;;;;;;5062338;28;20365;-47
2021/12/16 11:37:50;;;;;;;0.00;0.00;;;6.60;99.90;;;;;;5096724;28;20032;-49
2021/12/16 11:40:18;;;;;;;0.08;0.08;;;6.70;99.90;;;;;;5096815;28;20487;-52
2021/12/16 11:42:56;;;;;;;0.00;0.00;;;7.00;99.90;;;;;;5096376;28;20028;-50
2021/12/16 11:45:51;;;;;;;0.40;0.40;;;7.10;99.90;;;;;;5096090;28;20386;-49
2021/12/16 11:48:37;;;;;;;0.00;0.00;;;7.30;99.90;;;;;;5083011;28;20040;-51
2021/12/16 11:51:11;;;;;;;0.00;0.00;;;7.30;99.90;;;;;;5096837;28;20154;-47
2021/12/16 11:53:41;;;;;;;0.00;0.00;;;7.30;99.90;;;;;;5096644;28;20059;-50
2021/12/16 11:56:07;;;;;;;0.00;0.00;;;7.40;99.90;;;;;;5096180;28;20374;-48
2021/12/16 11:58:33;;;;;;;0.00;0.00;;;7.50;99.90;;;;;;5096203;28;20455;-52
2021/12/16 12:01:09;;;;;;;0.00;0.00;;;7.70;99.90;;;;;;5096432;28;20036;-48
2021/12/16 12:03:35;;;;;;;0.00;0.00;;;7.80;99.90;;;;;;5096072;28;20044;-46
2021/12/16 12:06:01;;;;;;;0.13;0.08;;;8.00;99.90;;;;;;5096019;28;20398;-50
2021/12/16 12:08:31;;;;;;;0.00;0.00;;;7.80;99.90;;;;;;5096014;28;20025;-49
2021/12/16 12:11:06;;;;;;;0.28;0.28;;;7.30;99.90;;;;;;5096373;28;20181;-49
2021/12/16 12:13:43;;;;;;;0.00;0.00;;;7.40;99.90;;;;;;5096213;28;20455;-49
2021/12/16 12:16:12;;;;;;;0.00;0.00;;;7.50;99.90;;;;;;5095764;28;20074;-51
2021/12/16 12:18:54;;;;;;;1.27;0.93;;;7.60;99.90;;;;;;5096177;28;20020;-51
2021/12/16 12:21:28;;;;;;;0.00;0.00;;;7.40;99.90;;;;;;5095684;28;20032;-49
2021/12/16 12:24:05;;;;;;;0.00;0.00;;;7.30;99.90;;;;;;5095043;28;20035;-53
2021/12/16 12:26:34;;;;;;;0.00;0.00;;;7.50;99.90;;;;;;5095925;28;20039;-47
2021/12/16 12:29:11;;;;;;;0.47;0.47;;;7.60;99.90;;;;;;5095605;28;20089;-52
2021/12/16 12:31:41;;;;;;;0.00;0.00;;;7.40;99.90;;;;;;5095578;28;20026;-47
2021/12/16 12:34:08;;;;;;;0.57;0.57;;;7.20;99.90;;;;;;5077507;28;20069;-49
2021/12/16 12:36:34;;;;;;;0.00;0.00;;;7.30;99.90;;;;;;5095674;28;20024;-50
2021/12/16 12:39:05;;;;;;;0.00;0.00;;;7.00;99.90;;;;;;5095596;28;20370;-50
2021/12/16 12:41:30;;;;;;;0.00;0.00;;;6.80;99.90;;;;;;5095931;28;20419;-51
2021/12/16 12:43:57;;;;;;;0.45;0.45;;;6.90;99.90;;;;;;5095285;28;20067;-49
2021/12/16 12:46:23;;;;;;;0.00;0.00;;;7.00;99.90;;;;;;5094979;28;20051;-52
2021/12/16 12:48:49;;;;;;;0.00;0.00;;;7.10;99.90;;;;;;5095561;28;20067;-49
2021/12/16 12:51:16;;;;;;;0.90;0.85;;;7.40;99.90;;;;;;5077068;28;20024;-49
2021/12/16 12:53:51;;;;;;;0.00;0.00;;;7.30;99.90;;;;;;5095166;28;20051;-48
2021/12/16 12:56:32;;;;;;;0.00;0.00;;;7.20;99.90;;;;;;5095405;28;20035;-48
2021/12/16 12:59:06;;;;;;;0.22;0.22;;;7.30;99.90;;;;;;5094948;28;20020;-48
2021/12/16 13:01:55;;;;;;;0.00;0.00;;;7.40;99.90;;;;;;5095604;28;20074;-48
2021/12/16 13:04:26;;;;;;;0.00;0.00;;;7.30;99.90;;;;;;5095188;28;20173;-48
2021/12/16 13:07:09;;;;;;;0.00;0.00;;;7.20;99.90;;;;;;5094622;28;20433;-48
2021/12/16 13:09:42;;;;;;;0.00;0.00;;;7.20;99.90;;;;;;5095186;28;20032;-47
2021/12/16 13:13:17;;;;;;;0.00;0.00;;;7.40;99.90;;;;;;5094775;28;20024;-50
2021/12/16 13:23:53;;;;;;;0.00;0.00;;;7.60;99.90;;;;;;5094538;28;20035;-51
2021/12/16 13:29:13;;;;;;;0.00;0.00;;;7.40;99.90;;;;;;5094694;28;20158;-52
2021/12/16 13:32:31;;;;;;;0.00;0.00;;;7.30;99.90;;;;;;5094289;28;20467;-51
2021/12/16 13:34:59;;;;;;;0.00;0.00;;;7.20;99.90;;;;;;5079420;28;20112;-48
2021/12/16 13:37:30;;;;;;;0.00;0.00;;;7.20;99.90;;;;;;5055158;28;20075;-48
2021/12/16 13:40:16;;;;;;;0.00;0.00;;;7.30;99.90;;;;;;5066210;28;20082;-52
2021/12/16 13:42:54;;;;;;;0.00;0.00;;;7.30;99.90;;;;;;5071819;28;20044;-51
2021/12/16 13:45:27;;;;;;;0.00;0.00;;;7.30;99.90;;;;;;5065730;28;20037;-51
2021/12/16 14:05:58;;;;;;;0.00;0.00;;;7.00;99.90;;;;;;5093687;28;20051;-48
2021/12/16 14:08:40;;;;;;;1.65;0.45;;;7.00;99.90;;;;;;5053328;28;20055;-47
2021/12/16 14:14:30;;;;;;;0.00;0.00;;;6.70;99.90;;;;;;5067030;28;20046;-52
2021/12/16 14:17:14;;;;;;;0.00;0.00;;;7.00;99.90;;;;;;5093936;28;20404;-48
2021/12/16 14:42:59;;;;;;;0.00;0.00;;;6.80;99.90;;;;;;5065961;28;20031;-48
2021/12/16 14:50:50;;;;;;;0.00;0.00;;;6.40;99.90;;;;;;5091507;28;19980;-51
2021/12/16 14:53:21;;;;;;;0.10;0.10;;;6.30;99.90;;;;;;5086386;28;20029;-49
2021/12/16 14:55:48;;;;;;;0.00;0.00;;;6.30;99.90;;;;;;5063966;28;20028;-46
2021/12/16 14:58:14;;;;;;;2.03;0.47;;;6.10;99.90;;;;;;5069745;28;20746;-49
2021/12/16 15:00:49;;;;;;;2.20;0.93;;;6.10;99.90;;;;;;5067929;28;20144;-50
2021/12/16 15:03:16;;;;;;;0.30;0.30;;;6.10;99.90;;;;;;5054876;28;20242;-50
2021/12/16 15:05:47;;;;;;;0.65;0.50;;;6.10;99.90;;;;;;5089321;28;20051;-50
2021/12/16 15:08:25;;;;;;;0.07;0.07;;;5.90;99.90;;;;;;5090801;28;20363;-53
2021/12/16 15:10:53;;;;;;;1.05;1.00;;;5.90;99.90;;;;;;5090753;28;20035;-50
2021/12/16 15:13:29;;;;;;;0.08;0.08;;;5.70;99.90;;;;;;5089027;28;20046;-48
2021/12/16 15:38:23;;;;;;;0.77;0.77;;;5.50;99.90;;;;;;5083569;28;20031;-45
2021/12/16 15:43:30;;;;;;;6.75;0.25;;;5.50;99.90;;;;;;5092060;28;20030;-51
2021/12/16 15:45:57;;;;;;;29.13;0.80;;;5.40;99.90;;;;;;5073841;28;20493;-51
2021/12/16 15:48:25;;;;;;;0.00;0.00;;;5.40;99.90;;;;;;5092402;28;20052;-46
2021/12/16 15:50:56;;;;;;;9.98;4.32;;;5.40;99.90;;;;;;5091812;28;20024;-48
2021/12/16 15:53:26;;;;;;;6.60;3.15;;;5.40;99.90;;;;;;5091834;28;20518;-49
2021/12/16 15:56:06;;;;;;;0.98;0.93;;;5.30;99.90;;;;;;5077290;28;20096;-51
2021/12/16 15:58:40;;;;;;;4.35;3.50;;;5.10;99.90;;;;;;5104333;28;20017;-50
2021/12/16 16:01:27;;;;;;;0.47;0.47;;;5.10;99.90;;;;;;5079927;28;20028;-50
2021/12/16 16:03:53;;;;;;;0.60;0.28;;;5.10;99.90;;;;;;5077697;28;20113;-49
2021/12/16 16:06:19;;;;;;;0.10;0.10;;;5.20;99.90;;;;;;5087172;28;20036;-51
2021/12/16 16:08:50;;;;;;;0.05;0.05;;;5.20;99.90;;;;;;5090069;28;20012;-53
2021/12/16 16:11:25;;;;;;;1.80;1.60;;;5.20;99.90;;;;;;5084597;28;20042;-52
2021/12/16 16:14:02;;;;;;;3.40;1.88;;;5.20;99.90;;;;;;5070089;28;20354;-53
2021/12/16 16:16:35;;;;;;;0.98;0.98;;;5.10;99.90;;;;;;5082347;28;20104;-50
2021/12/16 16:19:03;;;;;;;0.00;0.00;;;5.00;99.90;;;;;;5082506;28;20112;-48
2021/12/16 16:21:29;;;;;;;0.00;0.00;;;4.90;99.90;;;;;;5073008;28;20135;-51
2021/12/16 16:24:13;;;;;;;0.00;0.00;;;4.90;99.90;;;;;;5090386;28;20112;-46
2021/12/16 16:26:40;;;;;;;0.00;0.00;;;4.90;99.90;;;;;;5075537;28;20029;-47
2021/12/16 16:29:19;;;;;;;0.00;0.00;;;5.00;99.90;;;;;;5075536;28;20044;-48
2021/12/16 16:31:45;;;;;;;0.00;0.00;;;4.90;99.90;;;;;;5075336;28;20032;-50
2021/12/16 16:34:21;;;;;;;0.00;0.00;;;5.00;99.90;;;;;;5074652;28;20111;-48
2021/12/16 16:36:54;;;;;;;0.00;0.00;;;5.00;99.90;;;;;;5074983;28;20497;-49
2021/12/16 16:39:29;;;;;;;0.00;0.00;;;5.10;99.90;;;;;;5075032;28;20020;-49
2021/12/16 16:41:58;;;;;;;0.15;0.15;;;5.00;99.90;;;;;;5075546;28;20104;-48
2021/12/16 16:44:26;;;;;;;0.55;0.15;;;5.00;99.90;;;;;;5074775;28;20029;-49
2021/12/16 16:47:09;;;;;;;1.40;0.50;;;5.00;99.90;;;;;;5075035;28;20044;-49
2021/12/16 16:49:51;;;;;;;0.00;0.00;;;5.00;99.90;;;;;;5075117;28;20524;-48
2021/12/16 16:52:28;;;;;;;1.85;1.75;;;5.00;99.90;;;;;;5075008;28;20024;-47
2021/12/16 16:55:23;;;;;;;0.20;0.03;;;4.90;99.90;;;;;;5091084;28;20032;-52
2021/12/16 16:57:52;;;;;;;0.00;0.00;;;4.90;99.90;;;;;;5086021;28;20115;-51
2021/12/16 17:00:35;;;;;;;0.20;0.20;;;4.90;99.90;;;;;;5089393;28;20033;-50
2021/12/16 17:03:08;;;;;;;0.00;0.00;;;4.80;99.90;;;;;;5089847;28;20137;-53
2021/12/16 17:05:47;;;;;;;1.40;0.52;;;4.90;99.90;;;;;;5085998;28;20533;-56
2021/12/16 17:08:18;;;;;;;0.20;0.20;;;4.80;99.90;;;;;;5070379;28;20081;-52
2021/12/16 17:10:47;;;;;;;0.00;0.00;;;4.80;99.90;;;;;;5087721;28;20362;-48
2021/12/16 17:13:35;;;;;;;1.23;0.80;;;4.80;99.90;;;;;;5090039;28;20289;-47
2021/12/16 17:18:32;;;;;;;8.20;1.00;;;4.70;99.90;;;;;;5089822;28;20123;-51
2021/12/16 17:21:00;;;;;;;1.27;0.43;;;4.60;99.90;;;;;;5081274;28;20059;-48